createdAt,value
2023-04-13T00:02:39.131Z,7.90
2023-04-13T00:06:42.731Z,7.70
2023-04-13T00:10:46.148Z,17.70
2023-04-13T00:14:51.017Z,10.40
2023-04-13T00:18:54.010Z,10.80
2023-04-13T00:22:57.149Z,7.70
2023-04-13T00:27:01.338Z,14.00
2023-04-13T00:31:04.480Z,10.00
2023-04-13T00:35:08.562Z,10.90
2023-04-13T00:39:11.503Z,6.60
2023-04-13T00:43:15.031Z,7.40
2023-04-13T00:47:26.578Z,13.80
2023-04-13T00:51:33.171Z,10.60
2023-04-13T00:55:42.171Z,12.20
2023-04-13T00:59:45.783Z,9.20
2023-04-13T01:03:49.769Z,9.70
2023-04-13T01:08:13.840Z,8.30
2023-04-13T01:12:39.421Z,8.80
2023-04-13T01:16:47.063Z,10.80
2023-04-13T01:20:53.108Z,8.00
2023-04-13T01:25:02.269Z,12.30
2023-04-13T01:29:06.598Z,11.60
2023-04-13T01:33:11.459Z,10.10
2023-04-13T01:37:15.335Z,8.00
2023-04-13T01:41:18.645Z,10.10
2023-04-13T01:45:26.437Z,8.50
2023-04-13T01:49:29.914Z,14.50
2023-04-13T01:53:38.737Z,9.80
2023-04-13T01:57:47.442Z,9.60
2023-04-13T02:01:50.572Z,10.30
2023-04-13T02:05:53.651Z,11.50
2023-04-13T02:09:56.599Z,8.50
2023-04-13T02:13:59.894Z,8.60
2023-04-13T02:18:06.239Z,11.10
2023-04-13T02:22:09.206Z,10.70
2023-04-13T02:26:13.750Z,8.40
2023-04-13T02:30:17.429Z,8.30
2023-04-13T02:34:20.422Z,14.80
2023-04-13T02:38:23.409Z,10.40
2023-04-13T02:42:26.615Z,10.80
2023-04-13T02:46:32.163Z,10.70
2023-04-13T02:50:36.008Z,14.10
2023-04-13T02:54:39.033Z,10.00
2023-04-13T02:58:42.001Z,11.30
2023-04-13T03:02:45.120Z,14.10
2023-04-13T03:06:48.876Z,11.00
2023-04-13T03:10:54.347Z,14.10
2023-04-13T03:14:57.497Z,10.30
2023-04-13T03:19:00.610Z,9.70
2023-04-13T03:23:04.603Z,10.40
2023-04-13T03:27:08.058Z,11.50
2023-04-13T03:31:11.020Z,13.50
2023-04-13T03:35:14.047Z,9.80
2023-04-13T03:39:17.142Z,17.20
2023-04-13T03:43:20.016Z,13.60
2023-04-13T03:47:22.948Z,16.80
2023-04-13T03:51:25.895Z,14.60
2023-04-13T03:55:28.944Z,12.00
2023-04-13T03:59:32.021Z,13.80
2023-04-13T04:03:35.033Z,14.40
2023-04-13T04:07:38.282Z,12.60
2023-04-13T04:11:41.564Z,16.10
2023-04-13T04:15:44.602Z,16.70
2023-04-13T04:19:47.615Z,15.90
2023-04-13T04:23:52.347Z,17.60
2023-04-13T04:27:57.883Z,19.70
2023-04-13T04:32:05.748Z,20.60
2023-04-13T04:36:14.388Z,19.90
2023-04-13T04:40:17.549Z,32.40
2023-04-13T04:44:25.293Z,49.10
2023-04-13T04:48:31.836Z,35.20
2023-04-13T04:52:34.913Z,19.10
2023-04-13T04:56:37.942Z,21.10
2023-04-13T05:00:41.377Z,36.30
2023-04-13T05:04:44.685Z,30.80
2023-04-13T05:08:47.728Z,22.10
2023-04-13T05:12:51.261Z,26.60
2023-04-13T05:16:54.670Z,91.40
2023-04-13T05:20:57.872Z,63.20
2023-04-13T05:25:01.239Z,32.90
2023-04-13T05:29:05.449Z,63.20
2023-04-13T05:33:09.250Z,52.40
2023-04-13T05:37:14.710Z,18.30
2023-04-13T05:41:17.726Z,17.20
2023-04-13T05:45:21.662Z,25.80
2023-04-13T05:49:24.780Z,21.90
2023-04-13T05:53:27.851Z,15.00
2023-04-13T05:57:31.162Z,20.80
2023-04-13T06:01:35.111Z,18.50
2023-04-13T06:05:38.708Z,19.00
2023-04-13T06:09:41.780Z,8.90
2023-04-13T06:13:44.974Z,10.60
2023-04-13T06:17:51.618Z,12.70
2023-04-13T06:21:54.760Z,12.40
2023-04-13T06:25:58.496Z,12.50
2023-04-13T06:30:02.646Z,9.00
2023-04-13T06:34:05.673Z,10.50
2023-04-13T06:38:10.239Z,13.50
2023-04-13T06:42:13.773Z,10.50
2023-04-13T06:46:19.094Z,8.20
2023-04-13T06:50:22.925Z,11.50
2023-04-13T06:54:26.694Z,9.30
2023-04-13T06:58:30.297Z,13.00
2023-04-13T07:02:34.034Z,14.90
2023-04-13T07:06:37.429Z,11.20
2023-04-13T07:10:41.253Z,11.90
2023-04-13T07:14:46.444Z,11.00
2023-04-13T07:18:49.548Z,12.00
2023-04-13T07:22:52.659Z,13.10
2023-04-13T07:26:58.967Z,12.00
2023-04-13T07:31:03.664Z,10.40
2023-04-13T07:35:07.089Z,12.60
2023-04-13T07:39:10.835Z,10.60
2023-04-13T07:43:13.996Z,10.00
2023-04-13T07:47:16.965Z,8.20
2023-04-13T07:51:20.569Z,3.60
2023-04-13T07:55:23.722Z,4.40
2023-04-13T07:59:26.809Z,5.60
2023-04-13T08:03:34.014Z,2.40
2023-04-13T08:07:37.256Z,2.40
2023-04-13T08:11:42.997Z,2.40
2023-04-13T08:15:45.999Z,2.20
2023-04-13T08:19:49.340Z,1.60
2023-04-13T08:23:52.308Z,2.20
2023-04-13T08:27:55.443Z,3.10
2023-04-13T08:31:59.093Z,2.00
2023-04-13T08:36:02.302Z,1.40
2023-04-13T08:40:07.921Z,1.50
2023-04-13T08:44:13.728Z,1.30
2023-04-13T08:48:19.448Z,0.90
2023-04-13T08:52:23.369Z,1.00
2023-04-13T08:56:42.060Z,1.50
2023-04-13T09:00:50.369Z,2.40
2023-04-13T09:04:55.708Z,3.40
2023-04-13T09:08:59.824Z,2.50
2023-04-13T09:13:06.986Z,0.90
2023-04-13T09:17:10.023Z,2.50
2023-04-13T09:21:13.463Z,2.20
2023-04-13T09:25:24.108Z,2.90
2023-04-13T09:29:27.227Z,1.10
2023-04-13T09:33:36.265Z,2.50
2023-04-13T09:37:43.399Z,1.50
2023-04-13T09:41:49.723Z,1.10
2023-04-13T09:45:53.428Z,1.20
2023-04-13T09:49:57.208Z,3.30
2023-04-13T09:54:00.702Z,2.40
2023-04-13T09:58:17.688Z,1.60
2023-04-13T10:02:22.008Z,5.50
2023-04-13T10:06:25.462Z,2.50
2023-04-13T10:10:29.142Z,0.90
2023-04-13T10:14:36.337Z,5.50
2023-04-13T10:19:00.729Z,1.40
2023-04-13T10:23:06.004Z,1.50
2023-04-13T10:27:36.638Z,3.80
2023-04-13T10:31:42.873Z,3.50
2023-04-13T10:55:37.023Z,1.50
2023-04-13T10:59:59.178Z,1.70
2023-04-13T11:04:10.309Z,2.00
2023-04-13T11:08:21.644Z,2.90
2023-04-13T11:12:27.353Z,1.90
2023-04-13T11:16:30.883Z,2.00
2023-04-13T11:20:40.747Z,8.10
2023-04-13T11:24:45.205Z,0.50
2023-04-13T11:28:48.703Z,1.00
2023-04-13T11:32:56.315Z,1.50
2023-04-13T11:37:05.411Z,2.60
2023-04-13T11:41:16.574Z,4.50
2023-04-13T11:45:23.084Z,2.20
2023-04-13T11:49:26.548Z,3.30
2023-04-13T11:53:30.426Z,1.90
2023-04-13T11:57:34.135Z,4.80
2023-04-13T12:01:43.750Z,7.30
2023-04-13T12:06:04.389Z,11.10
2023-04-13T12:10:10.961Z,19.00
2023-04-13T12:18:36.585Z,12.60
2023-04-13T12:22:55.021Z,3.50
2023-04-13T12:31:14.132Z,1.60
2023-04-13T12:35:19.669Z,1.30
2023-04-13T12:39:22.873Z,6.90
2023-04-13T12:43:26.933Z,3.20
2023-04-13T12:47:30.224Z,2.30
2023-04-13T12:51:33.488Z,2.50
2023-04-13T12:55:37.155Z,5.30
2023-04-13T12:59:40.813Z,4.30
2023-04-13T13:03:45.990Z,2.50
2023-04-13T13:07:49.750Z,3.80
2023-04-13T13:11:53.076Z,4.70
2023-04-13T13:15:56.433Z,2.20
2023-04-13T13:20:01.267Z,3.00
2023-04-13T13:28:50.938Z,1.70
2023-04-13T13:32:58.604Z,3.10
2023-04-13T13:37:02.297Z,4.90
2023-04-13T13:41:05.896Z,2.80
2023-04-13T13:45:09.983Z,4.10
2023-04-13T13:49:13.368Z,1.70
2023-04-13T13:53:16.967Z,1.60
2023-04-13T14:01:53.524Z,2.80
2023-04-13T14:05:56.962Z,3.60
2023-04-13T14:10:00.347Z,3.00
2023-04-13T14:14:18.247Z,2.40
2023-04-13T14:18:24.527Z,2.40
2023-04-13T14:22:30.455Z,3.70
2023-04-13T14:26:36.546Z,4.70
2023-04-13T14:30:40.860Z,6.10
2023-04-13T14:35:17.208Z,7.10
2023-04-13T14:39:20.615Z,7.10
2023-04-13T14:43:24.122Z,4.30
2023-04-13T14:47:27.564Z,1.90
2023-04-13T14:52:08.654Z,1.40
2023-04-13T15:00:54.788Z,3.50
2023-04-13T15:04:58.357Z,5.00
2023-04-13T15:09:03.982Z,3.80
2023-04-13T15:13:08.858Z,3.20
2023-04-13T15:17:12.722Z,4.00
2023-04-13T15:21:16.149Z,3.40
2023-04-13T15:25:19.389Z,2.80
2023-04-13T15:29:25.084Z,2.50
2023-04-13T15:33:29.928Z,2.40
2023-04-13T15:37:33.902Z,7.50
2023-04-13T15:41:37.242Z,10.90
2023-04-13T15:45:41.267Z,11.00
2023-04-13T15:49:44.707Z,6.80
2023-04-13T15:53:48.419Z,4.30
2023-04-13T15:57:54.027Z,2.60
2023-04-13T16:01:57.558Z,3.70
2023-04-13T16:06:02.170Z,2.00
2023-04-13T16:10:07.063Z,1.70
2023-04-13T16:14:10.427Z,3.70
2023-04-13T16:18:13.683Z,4.20
2023-04-13T16:22:17.303Z,7.00
2023-04-13T16:26:21.277Z,6.30
2023-04-13T16:30:24.876Z,5.40
2023-04-13T16:34:28.266Z,7.70
2023-04-13T16:38:31.646Z,5.40
2023-04-13T16:42:35.704Z,6.10
2023-04-13T16:46:39.063Z,4.70
2023-04-13T16:50:43.421Z,7.30
2023-04-13T16:54:47.640Z,12.00
2023-04-13T16:58:51.245Z,9.00
2023-04-13T17:02:54.878Z,27.00
2023-04-13T17:07:04.830Z,22.20
2023-04-13T17:11:08.761Z,20.60
2023-04-13T17:15:12.386Z,18.80
2023-04-13T17:19:16.298Z,17.40
2023-04-13T17:23:20.196Z,10.90
2023-04-13T17:27:23.931Z,10.50
2023-04-13T17:31:27.941Z,10.90
2023-04-13T17:35:31.351Z,9.40
2023-04-13T17:39:36.311Z,7.60
2023-04-13T17:43:42.310Z,5.90
2023-04-13T17:47:49.230Z,5.70
2023-04-13T17:51:55.428Z,5.40
2023-04-13T17:55:59.265Z,5.80
2023-04-13T18:00:03.080Z,9.40
2023-04-13T18:04:06.610Z,10.30
2023-04-13T18:08:10.385Z,13.50
2023-04-13T18:12:14.224Z,15.00
2023-04-13T18:16:17.769Z,12.70
2023-04-13T18:20:21.421Z,10.40
2023-04-13T18:24:24.989Z,12.60
2023-04-13T18:28:29.865Z,9.80
2023-04-13T18:32:36.119Z,9.40
2023-04-13T18:41:02.885Z,12.20
2023-04-13T18:45:09.630Z,7.70
2023-04-13T18:49:12.963Z,8.90
2023-04-13T18:53:16.510Z,8.30
2023-04-13T18:57:20.435Z,11.50
2023-04-13T19:01:23.953Z,6.40
2023-04-13T19:05:28.005Z,10.60
2023-04-13T19:09:32.603Z,8.40
2023-04-13T19:13:37.992Z,6.60
2023-04-13T19:17:42.307Z,7.80
2023-04-13T19:21:47.070Z,9.80
2023-04-13T19:25:53.679Z,10.20
2023-04-13T19:29:57.492Z,21.80
2023-04-13T19:34:01.062Z,12.30
2023-04-13T19:38:04.455Z,17.70
2023-04-13T19:42:08.645Z,12.40
2023-04-13T19:46:12.943Z,9.50
2023-04-13T19:50:17.904Z,18.20
2023-04-13T19:54:23.986Z,20.60
2023-04-13T19:58:29.080Z,22.00
2023-04-13T20:02:32.477Z,19.30
2023-04-13T20:06:36.639Z,22.20
2023-04-13T20:10:40.141Z,15.50
2023-04-13T20:24:39.286Z,21.10
2023-04-13T20:29:12.015Z,24.20
2023-04-13T20:33:17.757Z,24.00
2023-04-13T20:37:21.831Z,30.00
2023-04-13T20:41:32.459Z,40.80
2023-04-13T20:46:25.434Z,29.00
2023-04-13T20:51:07.560Z,40.10
2023-04-13T21:29:00.482Z,23.30
2023-04-13T21:38:55.623Z,18.30
2023-04-13T21:49:15.468Z,29.10
2023-04-13T22:02:16.489Z,28.70
2023-04-13T22:06:20.992Z,25.00
2023-04-13T22:10:24.516Z,19.80
2023-04-13T22:14:27.980Z,21.40
2023-04-13T22:18:31.277Z,24.90
2023-04-13T22:22:34.504Z,29.50
2023-04-13T22:26:37.841Z,28.00
2023-04-13T22:30:41.500Z,23.80
2023-04-13T22:34:44.841Z,25.60
2023-04-13T22:38:49.230Z,36.90
2023-04-13T22:42:54.151Z,27.90
2023-04-13T22:46:57.892Z,30.10
2023-04-13T22:51:01.105Z,39.90
2023-04-13T22:55:04.714Z,26.10
2023-04-13T22:59:08.018Z,29.40
2023-04-13T23:03:14.608Z,27.80
2023-04-13T23:07:18.063Z,27.20
2023-04-13T23:11:21.965Z,30.00
2023-04-13T23:15:25.889Z,23.70
2023-04-13T23:19:29.318Z,24.90
2023-04-13T23:23:32.490Z,23.40
2023-04-13T23:27:35.763Z,29.00
2023-04-13T23:31:39.271Z,25.90
2023-04-13T23:35:42.501Z,23.70
2023-04-13T23:39:45.751Z,28.10
2023-04-13T23:43:51.691Z,26.00
2023-04-13T23:47:55.052Z,22.60
2023-04-13T23:51:58.465Z,26.10
2023-04-13T23:56:01.710Z,25.80
